Waskesiu Lake, Canada
Current Conditions -  °F | °C
As of 5:00 AM on Thursday 18 Dec 2014 (Local Time) from CYPA Reporting Station
Light Snow Light Snow  
Wind Chill: -13°   Ceiling: 700
Heat Index: -8°   Visibility: 6mi
Dew Point: -9°   Wind: 7mph
Humidity: 93%   Direction: 200°SSW
Pressure: 29.96"   Gusts: NA
Location:  53.92°N, 106.08°W
Report Text: CYPA 181100Z 20006KT 6SM -SN OVC007 M08/M09 A2996 RMK ST8 SLP177
Loading
Personal Weather Stations






























Interactive Weather Map New forecast layout! Learn more

10-Day Weather Forecast

Advertisements
Track Severe Weather on mobile